Time;durP1;ratioP1;P1;durP2;ratioP2;P2;SDS_P1;SDS_P2;PMS_P1;PMS_P2;Temp;Humidity;BMP_temperature;BMP_pressure;BME280_temperature;BME280_humidity;BME280_pressure;Samples;Min_cycle;Max_cycle;Signal;HPM_P1;HPM_P2
2022/04/29 00:00:40;;;;;;;4.05;2.12;;;;;;;10.46;86.99;101957.30;1817160;78;26004;-62
2022/04/29 00:03:09;;;;;;;5.83;2.58;;;;;;;10.49;87.19;101957.10;1816934;78;25788;-62
2022/04/29 00:05:39;;;;;;;5.15;2.22;;;;;;;10.49;87.17;101955.75;1817200;78;27494;-62
2022/04/29 00:08:11;;;;;;;3.83;2.27;;;;;;;10.48;87.26;101956.25;1816719;78;43858;-62
2022/04/29 00:10:40;;;;;;;3.42;2.37;;;;;;;10.47;87.48;101957.22;1816768;79;25480;-62
2022/04/29 00:13:10;;;;;;;7.03;2.42;;;;;;;10.46;87.56;101951.45;1816957;79;25766;-62
2022/04/29 00:15:37;;;;;;;2.98;2.52;;;;;;;10.44;87.71;101954.73;1816915;79;25650;-62
2022/04/29 00:18:05;;;;;;;2.70;2.10;;;;;;;10.44;87.78;101949.84;1816940;79;27637;-62
2022/04/29 00:20:33;;;;;;;4.12;2.65;;;;;;;10.41;87.80;101949.55;1817092;78;25913;-62
2022/04/29 00:23:00;;;;;;;4.28;2.10;;;;;;;10.42;87.85;101948.59;1817121;79;25603;-62
2022/04/29 00:25:28;;;;;;;6.35;2.65;;;;;;;10.43;88.42;101946.28;1816970;78;25863;-62
2022/04/29 00:27:55;;;;;;;4.97;2.60;;;;;;;10.45;88.55;101948.84;1800646;78;25790;-62
2022/04/29 00:30:22;;;;;;;5.78;2.40;;;;;;;10.43;88.30;101952.16;1787683;80;27536;-62
2022/04/29 00:32:50;;;;;;;5.75;2.40;;;;;;;10.44;88.22;101955.23;1776005;80;25776;-62
2022/04/29 00:35:17;;;;;;;4.25;2.35;;;;;;;10.45;88.14;101947.50;1766448;81;25681;-62
2022/04/29 00:37:50;;;;;;;3.08;2.22;;;;;;;10.48;88.01;101952.22;1766108;81;25815;-62
2022/04/29 00:40:21;;;;;;;3.45;2.40;;;;;;;10.52;87.87;101955.55;1778097;80;25796;-62
2022/04/29 00:42:48;;;;;;;5.37;2.50;;;;;;;10.55;87.81;101959.36;1780623;80;27479;-62
2022/04/29 00:45:19;;;;;;;5.95;2.58;;;;;;;10.56;87.60;101961.08;1780497;80;25790;-62
2022/04/29 00:47:47;;;;;;;2.90;2.12;;;;;;;10.59;87.73;101960.00;1780550;80;25738;-62
2022/04/29 00:50:19;;;;;;;3.42;2.25;;;;;;;10.57;87.60;101962.80;1771062;79;25946;-62
2022/04/29 00:52:51;;;;;;;3.47;2.47;;;;;;;10.56;87.92;101966.95;1762884;81;25739;-62
2022/04/29 00:55:20;;;;;;;3.50;2.42;;;;;;;10.50;87.77;101966.90;1762693;81;27542;-62
2022/04/29 00:58:12;;;;;;;10.40;2.87;;;;;;;10.46;88.01;101966.25;1762826;81;25483;-62
2022/04/29 01:00:40;;;;;;;4.05;2.77;;;;;;;10.44;88.26;101975.41;1762393;81;25836;-61
2022/04/29 01:03:13;;;;;;;3.62;2.77;;;;;;;10.42;88.69;101974.64;1763022;81;26025;-62
2022/04/29 01:05:41;;;;;;;6.40;2.80;;;;;;;10.38;88.52;101970.42;1766348;81;25744;-62
2022/04/29 01:08:10;;;;;;;4.95;2.33;;;;;;;10.37;88.95;101970.92;1766034;81;27559;-61
2022/04/29 01:10:37;;;;;;;5.80;2.40;;;;;;;10.34;88.71;101967.05;1736853;81;26461;-62
2022/04/29 01:13:05;;;;;;;3.95;2.42;;;;;;;10.35;89.10;101968.78;1766365;79;25687;-61
2022/04/29 01:15:33;;;;;;;4.83;2.75;;;;;;;10.36;88.91;101960.21;1766168;80;26655;-62
2022/04/29 01:18:06;;;;;;;2.95;2.47;;;;;;;10.37;89.09;101963.28;1766200;81;25707;-61
2022/04/29 01:20:34;;;;;;;2.83;2.47;;;;;;;10.37;89.15;101952.09;1766036;81;27463;-61
2022/04/29 01:23:10;;;;;;;3.98;2.35;;;;;;;10.39;89.05;101951.97;1766356;80;25689;-62
2022/04/29 01:25:39;;;;;;;2.65;2.45;;;;;;;10.41;88.63;101949.55;1766027;81;25809;-61
2022/04/29 01:28:07;;;;;;;4.97;2.67;;;;;;;10.44;88.50;101945.31;1792052;78;25895;-61
2022/04/29 01:30:39;;;;;;;3.75;2.83;;;;;;;10.47;88.64;101942.42;1817065;78;25973;-61
2022/04/29 01:33:07;;;;;;;4.78;2.83;;;;;;;10.48;88.32;101941.92;1817419;78;27558;-62
2022/04/29 01:35:34;;;;;;;4.35;3.02;;;;;;;10.53;88.26;101942.48;1816896;78;25485;-62
2022/04/29 01:38:01;;;;;;;5.12;2.70;;;;;;;10.57;88.10;101936.39;1817097;79;26672;-62
2022/04/29 01:40:29;;;;;;;4.87;2.75;;;;;;;10.59;87.99;101941.16;1816943;78;26632;-61
2022/04/29 01:42:58;;;;;;;10.32;3.20;;;;;;;10.60;87.96;101934.81;1817010;78;25680;-61
2022/04/29 01:45:25;;;;;;;4.50;3.08;;;;;;;10.55;87.72;101942.36;1817067;79;28335;-61
2022/04/29 01:47:56;;;;;;;3.98;3.10;;;;;;;10.55;87.94;101935.14;1814618;79;25805;-62
2022/04/29 01:50:41;;;;;;;5.92;2.98;;;;;;;10.57;87.81;101937.24;1796067;79;25478;-61
2022/04/29 01:53:08;;;;;;;6.53;3.27;;;;;;;10.60;87.90;101934.81;1787858;80;26450;-62
2022/04/29 01:55:35;;;;;;;9.45;3.02;;;;;;;10.62;87.89;101937.77;1787379;79;25493;-61
2022/04/29 01:58:03;;;;;;;8.15;3.12;;;;;;;10.60;87.64;101928.97;1787590;80;27442;-62
2022/04/29 02:00:30;;;;;;;6.08;3.20;;;;;;;10.60;87.75;101931.66;1771802;80;25736;-61
2022/04/29 02:02:58;;;;;;;8.08;3.33;;;;;;;10.58;87.73;101928.20;1791100;79;25721;-61
2022/04/29 02:05:26;;;;;;;4.67;2.70;;;;;;;10.55;87.76;101923.03;1817012;78;26435;-62
2022/04/29 02:07:53;;;;;;;7.65;3.77;;;;;;;10.56;87.91;101930.63;1816776;79;26011;-62
2022/04/29 02:10:21;;;;;;;3.65;2.90;;;;;;;10.54;87.77;101928.53;1817011;79;27477;-62
2022/04/29 02:12:50;;;;;;;7.22;3.33;;;;;;;10.57;87.91;101928.33;1816722;78;25508;-61
2022/04/29 02:15:25;;;;;;;8.33;3.00;;;;;;;10.59;87.86;101928.59;1814285;79;25516;-61
2022/04/29 02:17:52;;;;;;;5.22;3.05;;;;;;;10.58;87.52;101926.86;1816900;78;25723;-61
2022/04/29 02:20:21;;;;;;;5.33;3.10;;;;;;;10.63;87.64;101928.73;1817400;78;25496;-62
2022/04/29 02:22:49;;;;;;;5.87;3.25;;;;;;;10.60;87.37;101927.63;1816899;78;28328;-62
2022/04/29 02:25:16;;;;;;;5.03;3.20;;;;;;;10.59;87.55;101927.23;1816921;78;25766;-61
2022/04/29 02:27:44;;;;;;;5.55;3.08;;;;;;;10.59;87.81;101925.90;1816942;78;25766;-62
2022/04/29 02:30:13;;;;;;;5.17;2.95;;;;;;;10.60;87.70;101927.63;1816910;79;25811;-61
2022/04/29 02:32:41;;;;;;;3.65;2.83;;;;;;;10.60;87.62;101926.28;1803239;78;26122;-61
2022/04/29 02:35:09;;;;;;;7.90;2.70;;;;;;;10.57;87.42;101922.45;1787554;80;27564;-62
2022/04/29 02:37:37;;;;;;;5.08;2.62;;;;;;;10.54;87.65;101930.72;1787428;80;25682;-62
2022/04/29 02:40:06;;;;;;;3.58;2.72;;;;;;;10.49;87.86;101932.39;1787545;80;25699;-62
2022/04/29 02:42:34;;;;;;;6.62;3.77;;;;;;;10.46;88.40;101933.97;1787643;80;25759;-61
2022/04/29 02:45:00;;;;;;;5.67;3.30;;;;;;;10.42;88.44;101938.33;1787706;79;25742;-62
2022/04/29 02:47:29;;;;;;;8.15;3.02;;;;;;;10.37;88.77;101939.08;1786375;79;27690;-62
2022/04/29 02:49:58;;;;;;;5.85;3.15;;;;;;;10.33;89.29;101935.73;1787456;79;25946;-62
2022/04/29 02:52:26;;;;;;;4.75;3.00;;;;;;;10.31;89.31;101941.70;1787780;79;25711;-61
2022/04/29 02:54:53;;;;;;;7.42;3.60;;;;;;;10.30;89.29;101941.35;1787881;79;26344;-62
2022/04/29 02:57:24;;;;;;;6.53;3.77;;;;;;;10.27;89.33;101942.40;1785360;79;25727;-62
2022/04/29 02:59:51;;;;;;;6.03;3.27;;;;;;;10.24;89.18;101948.47;1787378;80;27475;-62
2022/04/29 03:02:18;;;;;;;5.87;3.00;;;;;;;10.24;89.74;101945.78;1787463;79;25738;-62
2022/04/29 03:04:44;;;;;;;10.03;2.90;;;;;;;10.21;89.64;101945.52;1812840;79;25733;-62
2022/04/29 03:07:11;;;;;;;5.33;3.20;;;;;;;10.21;89.78;101951.39;1816916;78;25606;-62
2022/04/29 03:09:42;;;;;;;5.28;3.22;;;;;;;10.21;90.18;101954.93;1815186;78;25748;-62
2022/04/29 03:12:12;;;;;;;6.08;3.52;;;;;;;10.19;90.43;101952.82;1816999;79;28108;-62
2022/04/29 03:14:40;;;;;;;5.45;3.20;;;;;;;10.14;90.18;101954.48;1816841;79;25702;-61
2022/04/29 03:18:17;;;;;;;6.33;3.55;;;;;;;10.17;90.61;101955.63;1816904;78;25705;-62
2022/04/29 03:19:39;;;;;;;7.17;3.90;;;;;;;10.18;90.65;101959.16;1812718;79;25875;-61
2022/04/29 03:22:06;;;;;;;5.85;3.47;;;;;;;10.16;90.49;101957.09;1817425;78;25718;-61
2022/04/29 03:24:35;;;;;;;8.18;3.45;;;;;;;10.17;90.46;101968.22;1816844;78;28408;-61
2022/04/29 03:27:03;;;;;;;6.75;3.40;;;;;;;10.14;90.28;101965.73;1816553;78;25745;-61
2022/04/29 03:29:32;;;;;;;4.72;2.98;;;;;;;10.15;90.79;101966.96;1814213;78;25690;-61
2022/04/29 03:31:59;;;;;;;5.90;3.58;;;;;;;10.15;90.65;101971.49;1811152;79;25771;-61
2022/04/29 03:34:36;;;;;;;8.65;3.27;;;;;;;10.17;90.65;101974.95;1778848;79;25699;-61
2022/04/29 03:37:05;;;;;;;5.42;3.17;;;;;;;10.18;90.43;101979.33;1800831;78;27403;-62
2022/04/29 03:39:32;;;;;;;5.65;3.35;;;;;;;10.19;90.34;101977.02;1800489;79;25813;-62
2022/04/29 03:42:00;;;;;;;6.95;2.47;;;;;;;10.18;90.50;101980.67;1800593;79;25715;-61
2022/04/29 03:44:27;;;;;;;4.30;3.45;;;;;;;10.19;90.37;101983.75;1800659;79;25842;-62
2022/04/29 03:46:53;;;;;;;7.42;4.60;;;;;;;10.16;90.08;101986.17;1800827;78;25443;-62
2022/04/29 03:49:37;;;;;;;4.95;3.55;;;;;;;10.18;90.44;101984.70;1798820;79;26882;-62
2022/04/29 03:52:15;;;;;;;6.35;3.52;;;;;;;10.18;90.44;101983.36;1800238;78;25415;-62
2022/04/29 03:54:42;;;;;;;5.37;3.58;;;;;;;10.18;90.44;101984.70;1800556;78;25623;-62
2022/04/29 03:57:10;;;;;;;6.87;3.45;;;;;;;10.17;90.49;101987.89;1801029;79;25857;-62
2022/04/29 03:59:37;;;;;;;4.65;2.98;;;;;;;10.17;90.30;101991.08;1800760;78;25460;-61
2022/04/29 04:02:05;;;;;;;6.37;2.95;;;;;;;10.18;90.45;101990.97;1800517;78;27488;-61
2022/04/29 04:04:32;;;;;;;5.97;3.60;;;;;;;10.22;90.44;101993.45;1810757;79;25681;-61
2022/04/29 04:07:01;;;;;;;7.10;3.02;;;;;;;10.21;90.35;101995.77;1814011;79;25841;-62
2022/04/29 04:09:39;;;;;;;4.10;2.70;;;;;;;10.21;90.16;101986.36;1747086;81;25779;-62
2022/04/29 04:12:10;;;;;;;6.25;3.15;;;;;;;10.19;90.11;101997.19;1856546;77;25448;-62
2022/04/29 04:14:41;;;;;;;4.55;3.17;;;;;;;10.18;90.23;101996.81;1836330;77;27457;-62
2022/04/29 04:17:08;;;;;;;6.25;3.08;;;;;;;10.16;90.07;101995.58;1856458;77;25606;-62
2022/04/29 04:19:36;;;;;;;9.05;3.00;;;;;;;10.19;89.92;102002.57;1856562;77;25715;-62
2022/04/29 04:22:04;;;;;;;6.62;3.20;;;;;;;10.20;89.67;101997.58;1856384;77;25832;-62
2022/04/29 04:24:31;;;;;;;5.95;2.90;;;;;;;10.18;89.94;102004.88;1856970;77;25685;-62
2022/04/29 04:26:58;;;;;;;5.25;3.40;;;;;;;10.15;90.09;102003.27;1856832;77;27289;-62
2022/04/29 04:29:25;;;;;;;6.72;3.05;;;;;;;10.15;90.20;102001.92;1847489;77;25483;-62
2022/04/29 04:31:54;;;;;;;6.62;3.22;;;;;;;10.16;90.40;102005.48;1813359;77;25762;-62
2022/04/29 04:35:06;;;;;;;3.72;2.77;;;;;;;10.15;90.39;102001.92;1829032;78;25777;-63
2022/04/29 04:36:54;;;;;;;6.40;2.90;;;;;;;10.15;90.43;102007.30;1808302;78;25768;-63
2022/04/29 04:39:22;;;;;;;7.37;3.10;;;;;;;10.15;90.64;102012.67;1829373;77;27412;-63
2022/04/29 04:41:51;;;;;;;7.92;2.72;;;;;;;10.16;90.90;102010.87;1828917;78;25769;-62
2022/04/29 04:44:20;;;;;;;3.35;2.52;;;;;;;10.16;90.96;102013.55;1828341;78;25655;-63
2022/04/29 04:46:47;;;;;;;6.55;3.62;;;;;;;10.19;91.05;102017.36;1830213;77;26578;-63
2022/04/29 04:49:16;;;;;;;6.70;2.92;;;;;;;10.20;91.14;102020.44;1852959;76;25701;-63
2022/04/29 04:51:44;;;;;;;3.92;2.80;;;;;;;10.23;91.17;102021.58;1827042;77;27435;-63
2022/04/29 04:54:13;;;;;;;5.10;3.87;;;;;;;10.25;91.13;102018.78;1829013;78;25921;-63
2022/04/29 04:56:40;;;;;;;7.53;2.65;;;;;;;10.30;91.04;102023.38;1828995;77;25427;-63
2022/04/29 04:59:08;;;;;;;4.08;2.55;;;;;;;10.31;90.80;102025.96;1828660;78;25794;-63
2022/04/29 05:01:36;;;;;;;5.60;3.30;;;;;;;10.36;90.61;102030.15;1829268;77;25598;-63
2022/04/29 05:04:21;;;;;;;8.63;2.65;;;;;;;10.39;90.26;102028.64;1838876;77;27516;-64
2022/04/29 05:06:52;;;;;;;3.77;2.83;;;;;;;10.40;90.03;102025.84;1842954;77;25714;-63
2022/04/29 05:09:23;;;;;;;5.15;2.60;;;;;;;10.40;89.97;102021.80;1843453;77;25567;-62
2022/04/29 05:11:50;;;;;;;5.67;3.20;;;;;;;10.39;89.88;102027.30;1843202;77;25969;-62
2022/04/29 05:14:22;;;;;;;3.25;2.62;;;;;;;10.41;89.92;102028.06;1843333;77;25720;-63
2022/04/29 05:16:50;;;;;;;3.83;2.80;;;;;;;10.46;89.95;102028.12;1842957;77;27451;-63
2022/04/29 05:19:35;;;;;;;8.90;2.75;;;;;;;10.49;89.47;102027.05;1843118;77;26779;-63
2022/04/29 05:22:03;;;;;;;6.95;2.52;;;;;;;10.56;89.37;102025.66;1843041;77;25809;-63
2022/04/29 05:24:32;;;;;;;3.52;2.50;;;;;;;10.58;89.21;102026.42;1842804;77;25802;-63
2022/04/29 05:27:18;;;;;;;5.80;2.90;;;;;;;10.64;88.89;102034.06;1843425;77;25670;-62
2022/04/29 05:29:46;;;;;;;12.45;7.53;;;;;;;10.68;88.72;102030.67;1823380;77;27457;-63
2022/04/29 05:32:33;;;;;;;10.80;7.12;;;;;;;10.76;88.30;102032.34;1837145;77;25741;-63
2022/04/29 05:35:18;;;;;;;10.35;5.22;;;;;;;10.85;88.29;102030.86;1829084;78;25682;-62
2022/04/29 05:38:04;;;;;;;8.88;2.47;;;;;;;10.98;88.16;102028.67;1829133;77;25924;-63
2022/04/29 05:43:17;;;;;;;4.12;2.08;;;;;;;11.13;87.34;102035.66;1829204;77;27458;-63
2022/04/29 05:45:43;;;;;;;13.75;2.92;;;;;;;11.21;87.32;102031.92;1828989;77;25739;-63
2022/04/29 05:48:11;;;;;;;3.00;1.90;;;;;;;11.33;87.02;102042.80;1829186;77;25821;-63
2022/04/29 05:50:38;;;;;;;4.25;2.30;;;;;;;11.38;86.04;102046.89;1839096;77;25925;-63
2022/04/29 05:53:06;;;;;;;2.95;1.85;;;;;;;11.43;85.32;102045.19;1843188;77;25741;-63
2022/04/29 05:55:33;;;;;;;2.25;1.80;;;;;;;11.48;85.02;102047.08;1843179;77;28973;-63
2022/04/29 05:58:00;;;;;;;6.05;2.40;;;;;;;11.48;84.39;102045.73;1843436;77;25780;-64
2022/04/29 06:00:27;;;;;;;2.00;1.50;;;;;;;11.52;84.68;102047.72;1833166;76;25701;-63
2022/04/29 06:02:59;;;;;;;1.98;1.50;;;;;;;11.59;85.12;102047.64;1799445;77;25836;-62
2022/04/29 06:05:27;;;;;;;4.58;1.75;;;;;;;11.72;84.64;102051.18;1845688;77;25748;-62
2022/04/29 06:07:55;;;;;;;1.72;1.55;;;;;;;11.78;84.42;102040.91;1852299;76;27453;-62
2022/04/29 06:10:33;;;;;;;4.45;1.80;;;;;;;11.87;84.64;102051.02;1808475;77;25730;-62
2022/04/29 06:12:59;;;;;;;3.45;2.20;;;;;;;11.89;82.40;102055.81;1790043;77;25770;-61
2022/04/29 06:15:28;;;;;;;8.73;2.27;;;;;;;11.96;83.47;102053.03;1789850;78;27910;-62
2022/04/29 06:18:09;;;;;;;5.55;1.60;;;;;;;12.04;82.77;102049.80;1830834;77;25265;-61
2022/04/29 06:20:37;;;;;;;3.92;2.05;;;;;;;12.11;82.50;102054.23;1766313;78;27507;-61
2022/04/29 06:23:23;;;;;;;6.08;2.70;;;;;;;12.16;81.22;102055.61;1820226;78;26432;-61
2022/04/29 06:25:49;;;;;;;3.92;2.08;;;;;;;12.20;81.54;102063.86;1808696;79;25720;-61
2022/04/29 06:28:17;;;;;;;2.05;1.62;;;;;;;12.21;81.39;102064.23;1808321;79;25761;-61
2022/04/29 06:30:44;;;;;;;4.67;1.60;;;;;;;12.26;81.20;102065.24;1842331;76;25817;-61
2022/04/29 06:33:30;;;;;;;3.90;1.98;;;;;;;12.24;81.11;102069.89;1825281;76;27836;-61
2022/04/29 06:35:58;;;;;;;5.05;2.08;;;;;;;12.26;81.17;102067.06;1832166;77;25846;-61
2022/04/29 06:38:26;;;;;;;2.10;1.60;;;;;;;12.27;80.91;102068.78;1859909;77;25713;-61
2022/04/29 06:40:57;;;;;;;7.78;1.85;;;;;;;12.25;80.67;102072.95;1857259;76;25799;-61
2022/04/29 06:43:28;;;;;;;6.75;2.65;;;;;;;12.23;80.86;102074.06;1817497;78;25940;-59
2022/04/29 06:46:11;;;;;;;3.83;1.70;;;;;;;12.24;80.01;102079.83;1752140;81;27483;-60
2022/04/29 06:48:58;;;;;;;11.53;6.33;;;;;;;12.14;79.94;102080.52;1805910;78;25732;-61
2022/04/29 06:51:25;;;;;;;3.20;2.60;;;;;;;12.01;80.23;102086.43;1828840;76;25761;-60
2022/04/29 06:53:57;;;;;;;3.60;1.82;;;;;;;12.00;80.89;102088.28;1846173;77;25946;-61
2022/04/29 06:56:25;;;;;;;3.12;2.05;;;;;;;12.01;81.00;102091.83;1858669;77;25717;-61
2022/04/29 06:58:53;;;;;;;4.58;2.02;;;;;;;12.06;81.07;102086.94;1845592;77;27518;-61
2022/04/29 07:01:21;;;;;;;1.60;1.42;;;;;;;11.99;80.51;102088.38;1845789;77;25684;-60
2022/04/29 07:03:51;;;;;;;3.50;1.60;;;;;;;11.94;80.24;102087.83;1860333;77;25697;-61
2022/04/29 07:06:18;;;;;;;5.83;1.90;;;;;;;11.94;80.91;102093.23;1859858;77;25796;-62
2022/04/29 07:08:45;;;;;;;4.55;1.72;;;;;;;11.93;80.80;102094.20;1855533;77;25764;-61
2022/04/29 07:11:15;;;;;;;2.17;1.87;;;;;;;11.86;80.79;102093.31;1860488;76;27461;-61
2022/04/29 07:13:43;;;;;;;4.10;1.50;;;;;;;11.85;80.59;102102.37;1858754;77;26119;-61
2022/04/29 07:16:13;;;;;;;3.25;2.10;;;;;;;11.74;80.76;102096.39;1859853;77;25412;-62
2022/04/29 07:18:45;;;;;;;4.05;2.40;;;;;;;11.72;81.23;102102.87;1841598;77;25807;-61
2022/04/29 07:21:13;;;;;;;1.98;1.65;;;;;;;11.75;81.51;102099.96;1859841;76;25841;-61
2022/04/29 07:23:41;;;;;;;4.50;1.80;;;;;;;11.73;81.49;102108.64;1859967;77;27478;-60
2022/04/29 07:26:08;;;;;;;1.70;1.57;;;;;;;11.71;81.58;102105.19;1859805;77;25670;-61
2022/04/29 07:28:36;;;;;;;3.67;2.02;;;;;;;11.66;81.64;102108.71;1859697;77;25757;-61
2022/04/29 07:31:03;;;;;;;1.60;1.50;;;;;;;11.63;82.28;102108.92;1845208;77;25774;-61
2022/04/29 07:33:35;;;;;;;2.42;1.65;;;;;;;11.54;82.18;102107.27;1826933;77;25888;-61
2022/04/29 07:41:53;;;;;;;3.83;2.40;;;;;;;11.50;82.73;102117.91;1796513;79;26041;-62
2022/04/29 07:44:22;;;;;;;3.52;1.98;;;;;;;11.50;82.90;102117.91;1796244;79;25796;-62
2022/04/29 07:46:50;;;;;;;3.15;1.80;;;;;;;11.52;82.66;102121.83;1796126;79;25776;-62
2022/04/29 07:49:21;;;;;;;3.35;2.02;;;;;;;11.51;82.49;102117.41;1820575;77;27472;-61
2022/04/29 07:51:49;;;;;;;3.33;2.00;;;;;;;11.49;82.38;102124.26;1843985;76;25845;-62
2022/04/29 07:54:16;;;;;;;6.37;1.87;;;;;;;11.48;82.41;102123.88;1846287;77;25782;-61
2022/04/29 07:56:43;;;;;;;3.83;2.02;;;;;;;11.47;82.53;102129.39;1843102;77;25936;-60
2022/04/29 07:59:11;;;;;;;2.45;2.05;;;;;;;11.45;82.46;102124.59;1834366;77;25472;-62
2022/04/29 08:01:43;;;;;;;5.53;1.95;;;;;;;11.43;82.84;102123.33;1812378;77;27475;-62
2022/04/29 08:04:12;;;;;;;2.30;1.92;;;;;;;11.44;82.80;102127.75;1804451;77;25779;-62
2022/04/29 08:06:41;;;;;;;4.25;2.10;;;;;;;11.43;83.04;102126.90;1838709;77;25669;-62
2022/04/29 08:09:09;;;;;;;2.83;2.02;;;;;;;11.45;82.85;102120.05;1843119;77;25798;-62
2022/04/29 08:11:38;;;;;;;5.50;2.35;;;;;;;11.51;83.07;102124.14;1843501;77;25745;-62
2022/04/29 08:14:10;;;;;;;2.17;1.98;;;;;;;11.54;82.55;102123.44;1831046;77;27485;-61
2022/04/29 08:16:55;;;;;;;4.70;2.80;;;;;;;11.52;82.34;102121.83;1823513;78;26208;-62
2022/04/29 08:19:24;;;;;;;5.95;2.42;;;;;;;11.51;82.56;102125.02;1818929;77;25713;-62
2022/04/29 08:21:53;;;;;;;4.78;2.65;;;;;;;11.49;82.81;102129.65;1841273;77;25923;-62
2022/04/29 08:24:21;;;;;;;3.08;2.33;;;;;;;11.49;83.02;102127.42;1844821;77;25741;-62
2022/04/29 08:26:47;;;;;;;4.35;2.17;;;;;;;11.50;83.09;102123.30;1821187;77;27470;-62
2022/04/29 08:29:15;;;;;;;12.03;2.47;;;;;;;11.54;83.29;102122.59;1831187;77;25749;-61
2022/04/29 08:31:43;;;;;;;3.87;2.50;;;;;;;11.60;82.96;102122.14;1841837;77;25702;-61
2022/04/29 08:34:11;;;;;;;3.62;2.50;;;;;;;11.68;82.42;102119.75;1811002;77;25785;-61
2022/04/29 08:36:38;;;;;;;5.03;2.30;;;;;;;11.75;82.87;102116.14;1832807;76;25781;-61
2022/04/29 08:39:05;;;;;;;4.00;3.02;;;;;;;11.86;82.79;102122.09;1826006;78;27471;-61
2022/04/29 08:41:36;;;;;;;2.55;2.20;;;;;;;11.89;81.92;102120.03;1825642;78;25711;-61
2022/04/29 08:44:06;;;;;;;3.27;2.45;;;;;;;11.87;81.65;102122.47;1819656;77;25846;-61
2022/04/29 08:46:35;;;;;;;4.60;1.82;;;;;;;11.89;81.84;102122.72;1843647;77;26526;-62
2022/04/29 08:49:11;;;;;;;3.50;2.33;;;;;;;11.95;82.00;102121.92;1835033;77;25741;-61
2022/04/29 08:51:38;;;;;;;3.42;2.55;;;;;;;11.98;81.89;102122.59;1832347;77;28197;-62
2022/04/29 08:54:07;;;;;;;6.00;3.00;;;;;;;12.03;81.30;102119.05;1844004;77;25958;-61
2022/04/29 08:59:26;;;;;;;3.30;2.30;;;;;;;11.99;80.13;102122.09;1843138;77;25861;-62
2022/04/29 09:01:54;;;;;;;5.20;2.77;;;;;;;11.92;80.06;102124.83;1845250;77;25613;-62
2022/04/29 09:04:21;;;;;;;4.47;2.90;;;;;;;11.95;80.04;102118.72;1844434;77;27470;-62
2022/04/29 09:06:49;;;;;;;3.60;2.33;;;;;;;11.99;80.73;102116.22;1821618;77;25860;-62
2022/04/29 09:09:21;;;;;;;6.45;2.80;;;;;;;12.05;80.27;102110.37;1844742;77;25778;-62
2022/04/29 09:11:48;;;;;;;4.40;2.40;;;;;;;12.09;79.61;102108.80;1845155;77;25941;-62
2022/04/29 09:14:21;;;;;;;6.65;2.52;;;;;;;12.08;79.56;102113.31;1845063;77;25738;-62
2022/04/29 09:16:49;;;;;;;3.45;2.27;;;;;;;12.10;79.69;102111.37;1844978;77;28179;-62
2022/04/29 09:19:32;;;;;;;2.87;2.12;;;;;;;12.21;79.89;102111.45;1834088;77;25678;-63
2022/04/29 09:22:07;;;;;;;3.85;2.77;;;;;;;12.29;78.76;102115.41;1812238;77;25715;-62
2022/04/29 09:24:36;;;;;;;4.22;2.62;;;;;;;12.28;79.13;102112.33;1822408;77;26516;-61
2022/04/29 09:27:06;;;;;;;5.42;2.58;;;;;;;12.34;79.37;102113.21;1819093;77;26498;-62
2022/04/29 09:29:49;;;;;;;;;;;;;;;12.39;78.31;102119.61;1839586;77;27485;-61
2022/04/29 09:32:50;;;;;;;5.12;2.52;;;;;;;12.44;76.83;102115.59;1835797;77;25671;-61
2022/04/29 09:35:39;;;;;;;4.33;2.80;;;;;;;12.51;77.50;102114.16;1778009;77;25843;-61
2022/04/29 09:41:01;;;;;;;6.35;2.27;;;;;;;12.68;76.38;102120.14;1811952;79;25790;-61
2022/04/29 09:43:37;;;;;;;6.50;2.40;;;;;;;12.71;76.55;102121.73;1812058;79;27459;-60
2022/04/29 09:46:23;;;;;;;5.00;2.35;;;;;;;12.73;76.14;102115.73;1822399;77;25730;-61
2022/04/29 09:48:55;;;;;;;4.80;2.30;;;;;;;12.65;75.31;102116.31;1844984;77;25745;-61
2022/04/29 09:51:53;;;;;;;3.67;2.08;;;;;;;12.62;76.25;102117.41;1841811;77;26623;-61
2022/04/29 09:54:31;;;;;;;3.87;1.85;;;;;;;12.70;75.81;102114.61;1834949;77;25723;-61
2022/04/29 09:57:18;;;;;;;3.20;2.40;;;;;;;12.62;75.75;102116.06;1820916;77;27570;-61
2022/04/29 09:59:49;;;;;;;2.90;1.80;;;;;;;12.60;76.22;102109.03;1814220;77;25699;-61
2022/04/29 10:02:18;;;;;;;4.03;2.02;;;;;;;12.61;76.54;102109.41;1845332;77;25775;-61
2022/04/29 10:04:48;;;;;;;2.40;2.00;;;;;;;12.62;76.97;102111.13;1821656;77;25859;-62
2022/04/29 10:07:21;;;;;;;5.85;2.20;;;;;;;12.61;76.38;102110.28;1845505;77;25620;-62
2022/04/29 10:09:54;;;;;;;3.02;1.92;;;;;;;12.56;76.21;102107.56;1821301;77;25709;-62
2022/04/29 10:12:24;;;;;;;4.42;2.72;;;;;;;12.52;76.72;102110.98;1830074;77;25715;-62
2022/04/29 10:15:05;;;;;;;4.58;2.60;;;;;;;12.58;77.15;102111.02;1775526;78;25819;-62
2022/04/29 10:23:26;;;;;;;3.10;2.10;;;;;;;13.14;76.66;102103.05;1832034;76;27413;-61
2022/04/29 10:25:56;;;;;;;2.37;2.05;;;;;;;13.19;75.64;102112.65;1831492;77;25450;-61
2022/04/29 10:28:24;;;;;;;3.17;2.02;;;;;;;13.19;74.97;102108.59;1831714;78;25695;-62
2022/04/29 10:31:06;;;;;;;5.72;2.33;;;;;;;13.10;75.18;102105.64;1810534;78;25772;-61
2022/04/29 10:33:36;;;;;;;2.95;1.70;;;;;;;13.02;75.01;102101.80;1805176;77;25817;-61
2022/04/29 10:36:14;;;;;;;3.40;2.60;;;;;;;12.98;74.82;102102.53;1800183;78;28214;-61
2022/04/29 10:38:44;;;;;;;5.25;2.05;;;;;;;12.84;75.20;102103.12;1799966;78;25802;-61
2022/04/29 10:41:18;;;;;;;2.42;2.02;;;;;;;12.82;76.14;102100.15;1800198;79;25711;-61
2022/04/29 10:43:53;;;;;;;2.77;1.67;;;;;;;12.82;75.86;102105.08;1802250;77;25810;-61
2022/04/29 10:46:36;;;;;;;5.72;1.82;;;;;;;12.86;75.75;102098.95;1802691;79;25769;-62
2022/04/29 10:49:27;;;;;;;2.35;1.60;;;;;;;12.90;75.28;102100.45;1809208;77;27469;-62
2022/04/29 10:52:28;;;;;;;3.58;2.00;;;;;;;12.96;74.86;102094.55;1812112;79;25841;-62
2022/04/29 10:55:05;;;;;;;5.65;2.40;;;;;;;13.16;75.55;102088.09;1810701;79;25720;-62
2022/04/29 10:57:43;;;;;;;3.92;2.45;;;;;;;13.55;75.72;102087.77;1810470;78;25954;-61
2022/04/29 11:00:14;;;;;;;6.37;3.90;;;;;;;13.84;74.75;102091.30;1811233;78;33197;-61
2022/04/29 11:02:40;;;;;;;5.37;2.35;;;;;;;14.03;74.79;102087.94;1812052;79;27018;-62
2022/04/29 11:05:12;;;;;;;3.80;2.00;;;;;;;14.17;73.09;102092.20;1824908;77;25710;-63
2022/04/29 11:07:48;;;;;;;2.80;1.87;;;;;;;14.16;72.16;102091.84;1837198;77;25691;-62
2022/04/29 11:10:22;;;;;;;2.58;2.10;;;;;;;14.06;71.64;102089.05;1845048;77;25782;-61
2022/04/29 11:13:03;;;;;;;4.30;2.40;;;;;;;13.97;71.31;102097.41;1845088;77;26123;-62
2022/04/29 11:15:46;;;;;;;7.67;2.80;;;;;;;13.85;70.62;102098.44;1844837;77;27468;-62
2022/04/29 11:18:25;;;;;;;;;;;;;;;13.73;72.02;102101.16;1845574;77;25702;-62
2022/04/29 11:24:40;;;;;;;2.83;1.90;;;;;;;13.66;71.61;102092.30;1844953;77;25761;-62
2022/04/29 11:26:21;;;;;;;3.17;1.87;;;;;;;13.46;72.50;102088.88;1816839;77;25733;-61
2022/04/29 11:28:52;;;;;;;2.27;1.80;;;;;;;13.40;72.57;102085.79;1823180;77;27527;-61
2022/04/29 11:31:30;;;;;;;1.87;1.52;;;;;;;13.43;71.92;102086.91;1828584;77;25735;-61
2022/04/29 11:34:08;;;;;;;2.72;1.65;;;;;;;13.35;71.54;102089.34;1821838;77;25735;-61
2022/04/29 11:36:35;;;;;;;2.90;1.45;;;;;;;13.28;71.96;102078.98;1823074;78;25787;-62
2022/04/29 11:39:15;;;;;;;2.92;1.80;;;;;;;13.33;72.53;102079.97;1823164;78;26206;-62
2022/04/29 11:41:55;;;;;;;7.62;1.60;;;;;;;13.35;72.56;102073.96;1822938;78;27502;-62
2022/04/29 11:44:43;;;;;;;5.53;1.60;;;;;;;13.45;72.12;102070.05;1823011;78;25947;-62
2022/04/29 11:47:10;;;;;;;5.25;1.50;;;;;;;13.49;71.58;102066.13;1823035;78;25738;-62
2022/04/29 11:49:39;;;;;;;6.33;1.75;;;;;;;13.55;70.47;102061.58;1816072;77;26109;-62
2022/04/29 11:52:22;;;;;;;2.98;1.80;;;;;;;13.56;70.56;102061.09;1802886;79;25773;-62
2022/04/29 11:55:05;;;;;;;1.67;1.27;;;;;;;13.65;70.48;102062.18;1795208;78;28525;-62
2022/04/29 11:57:49;;;;;;;2.22;1.65;;;;;;;13.80;69.07;102066.36;1786943;79;25898;-62
2022/04/29 12:00:26;;;;;;;2.72;1.20;;;;;;;13.87;69.43;102055.88;1795071;79;25745;-62
2022/04/29 12:02:55;;;;;;;2.12;1.50;;;;;;;13.99;69.31;102057.58;1795337;78;25753;-62
2022/04/29 12:05:24;;;;;;;2.10;1.40;;;;;;;14.18;68.86;102051.98;1826528;78;25651;-62